• Join FlightAware (Why Join?)
  • Login
  • US Flag 
07:38AM EDT


 

Airport Tracker/Info


-or-


 

Live Flight TrackerFlight Track Log ✈ AWE3417 ✈ 25-Oct-2013 ✈ KDCA - KCMH

Flight Track Log - Related Links

Times and Time Zones

All times are in EDT time to prevent confusion due to time zone crossing. See the AWE3417 flight status page for this flight to view local times or setup timezone preferences in your user account.

Time Position Orientation Groundspeed Altitude Reporting Facility
EDT Latitude Longitude Course Direction KTS MPH feet Rate Location/Type
07:41PM 38.8667 -77.0500 277° West 137 158 1,400  Level Potomac TRACON
07:42PM 38.9167 -77.0833 333° Northwest 200 230 3,200 2,520 Climbing Potomac TRACON
07:44PM 38.9541 -77.4981 275° West  Level Estimated
07:44PM 38.9758 -77.1911 305° West 256 295 7,900  Level Washington Center
07:45PM 38.9535 -77.6179 270° West  Level FlightAware Approximate
07:45PM 38.9744 -77.2872 269° West 248 285 11,000  Level Washington Center
07:46PM 38.9792 -77.7330 270° West  Level Estimated
07:46PM 38.9728 -77.3967 269° West 278 320 13,400  Level Washington Center
07:47PM 39.0047 -77.8483 277° West  Level Estimated
07:47PM 38.9708 -77.5194 269° West 314 361 14,800  Level Washington Center
07:48PM 38.9689 -77.6367 269° West 357 411 17,000 1,620 Climbing Washington Center
07:49PM 38.9664 -77.7808 269° West 372 428 18,100 1,260 Climbing Washington Center
07:50PM 38.9642 -77.8983 269° West 372 428 19,500 960 Climbing Washington Center
07:51PM 38.9636 -78.0317 270° West 372 428 20,100 1,140 Climbing Washington Center
07:52PM 38.9608 -78.1678 269° West 377 434 21,800 1,620 Climbing Washington Center
07:53PM 38.9664 -78.2989 273° West 377 434 23,400 1,440 Climbing Washington Center
07:54PM 38.9736 -78.4353 274° West 382 440 24,800 1,260 Climbing Washington Center
07:55PM 38.9828 -78.5744 275° West 387 445 26,000 1,020 Climbing Washington Center
07:56PM 38.9917 -78.7136 275° West 387 445 26,900 840 Climbing Washington Center
07:57PM 39.0003 -78.8583 274° West 393 452 27,700 540 Climbing Washington Center
07:58PM 39.0089 -79.0031 274° West 403 464 28,000 120 Climbing Washington Center
07:59PM 39.0172 -79.1475 274° West 408 470 28,000  Level Washington Center
08:00PM 39.0264 -79.2603 276° West 408 470 28,000  Level Washington Center
08:01PM 39.0356 -79.4344 274° West 408 470 28,000  Level Washington Center
08:02PM 39.0494 -79.5794 277° West 408 470 28,000  Level Washington Center
08:03PM 39.0592 -79.7244 275° West 408 470 28,000  Level Washington Center
08:04PM 39.0686 -79.8747 275° West 408 470 28,000  Level Washington Center
08:05PM 39.0775 -80.0331 274° West 408 470 28,000  Level Washington Center
08:06PM 39.0864 -80.1808 274° West 408 470 28,000  Level Washington Center
08:06PM 39.0844 -80.2414 268° West 412 474 28,000  Level Indianapolis Center
08:07PM 39.0928 -80.3889 274° West 413 475 28,000  Level Indianapolis Center
08:08PM 39.1061 -80.5344 277° West 410 472 28,000  Level Indianapolis Center
08:09PM 39.1519 -80.6972 290° West 404 465 28,000  Level Indianapolis Center
08:10PM 39.1897 -80.8372 289° West 411 473 28,000  Level Indianapolis Center
08:11PM 39.2275 -80.9731 290° West 405 466 28,000 -240 Level Indianapolis Center
08:13PM 39.2639 -81.1103 289° West 405 466 27,600 -600 Descending Indianapolis Center
08:14PM 39.3008 -81.2444 290° West 398 458 26,800 -840 Descending Indianapolis Center
08:15PM 39.3364 -81.3786 289° West 396 456 26,000 -1,200 Descending Indianapolis Center
08:16PM 39.3717 -81.5108 289° West 393 452 24,400 -2,100 Descending Indianapolis Center
08:17PM 39.4125 -81.6653 289° West 381 438 21,700 -2,400 Descending Indianapolis Center
08:18PM 39.4461 -81.7903 289° West 371 427 19,600 -2,100 Descending Indianapolis Center
08:19PM 39.4725 -81.8969 288° West 363 418 17,800 -1,800 Descending Indianapolis Center
08:19PM 39.4789 -81.9139 296° West 365 420 17,800 -1,800 Level Indianapolis Center
08:19PM 39.5003 -82.0092 286° West 356 410 16,200 -2,040 Descending Indianapolis Center
08:20PM 39.5089 -82.0347 294° West 355 409 15,700 -2,100 Descending Indianapolis Center
08:21PM 39.5367 -82.1444 288° West 350 403 13,900 -2,100 Descending Indianapolis Center
08:21PM 39.5414 -82.1608 290° West 351 404 13,600 -2,100 Descending Indianapolis Center
08:22PM 39.5661 -82.2628 287° West 345 397 11,800 -1,980 Descending Indianapolis Center
08:22PM 39.5722 -82.2761 301° West 342 394 11,600 -840 Descending Indianapolis Center
08:23PM 39.6117 -82.3644 300° West 336 387 11,000 -720 Descending Indianapolis Center
08:23PM 39.6242 -82.3686 346° North 338 389 10,900 -420 Descending Indianapolis Center
08:24PM 39.6856 -82.4056 335° Northwest 279 321 10,600 -600 Descending Indianapolis Center
08:24PM 39.6964 -82.4122 335° Northwest 289 333 10,300 -2,220 Descending Indianapolis Center
08:25PM 39.7472 -82.4422 336° Northwest 251 289 8,600 -1,980 Descending Indianapolis Center
08:25PM 39.7617 -82.4486 341° North 259 298 8,300 -1,620 Descending Indianapolis Center
08:26PM 39.8053 -82.4972 319° Northwest 263 303 7,000 -1,680 Descending Indianapolis Center
08:26PM 39.8164 -82.5117 315° West 260 299 6,600 -1,860 Descending Indianapolis Center
08:26PM 39.8497 -82.5614 311° West 260 299 5,300 -2,340 Descending Indianapolis Center
08:27PM 39.8736 -82.5928 315° West 256 295 4,200 -1,800 Descending Indianapolis Center
08:27PM 39.8961 -82.6286 309° West 252 290 3,500 -1,200 Descending Indianapolis Center
08:28PM 39.9186 -82.6578 315° West 251 289 3,000 -840 Descending Indianapolis Center
08:28PM 39.9386 -82.6897 309° West 201 231 2,700 -540 Descending Indianapolis Center
08:29PM 39.9556 -82.7106 317° Northwest 226 260 2,500 -240 Descending Indianapolis Center
08:30PM 39.9892 -82.7594 312° West 203 234 2,400 -300 Descending Indianapolis Center
08:31PM 39.9978 -82.8144 282° West 170 196 1,900 -600 Descending Indianapolis Center
08:32PM 40.0003 -82.8586 274° West 141 162 1,200 -420 Descending Indianapolis Center
08:33PM 40.0033 -82.9025 275° West 138 159 1,100 -120 Descending Indianapolis Center